createdAt,value
2018-09-26T00:01:53.314Z,103121.46
2018-09-26T00:04:26.973Z,103120.10
2018-09-26T00:06:56.451Z,103109.03
2018-09-26T00:09:25.198Z,103109.43
2018-09-26T00:11:54.001Z,103097.28
2018-09-26T00:14:23.402Z,103098.64
2018-09-26T00:16:52.128Z,103091.81
2018-09-26T00:19:20.889Z,103089.10
2018-09-26T00:21:49.643Z,103091.27
2018-09-26T00:24:18.284Z,103095.67
2018-09-26T00:26:47.124Z,103088.41
2018-09-26T00:29:15.669Z,103085.84
2018-09-26T00:31:44.657Z,103089.29
2018-09-26T00:34:13.358Z,103083.67
2018-09-26T00:36:42.241Z,103082.83
2018-09-26T00:39:10.958Z,103076.23
2018-09-26T00:41:39.798Z,103085.33
2018-09-26T00:44:08.503Z,103081.47
2018-09-26T00:46:37.341Z,103073.88
2018-09-26T00:49:06.009Z,103072.81
2018-09-26T00:51:34.766Z,103073.95
2018-09-26T00:54:03.651Z,103076.91
2018-09-26T00:56:32.381Z,103070.42
2018-09-26T00:59:02.917Z,103060.16
2018-09-26T01:01:31.581Z,103065.77
2018-09-26T01:04:00.195Z,103044.31
2018-09-26T01:06:29.895Z,103040.72
2018-09-26T01:08:58.825Z,103040.47
2018-09-26T01:11:27.731Z,103040.17
2018-09-26T01:13:56.359Z,103037.16
2018-09-26T01:16:25.143Z,103035.88
2018-09-26T01:18:53.879Z,103019.78
2018-09-26T01:21:22.793Z,103013.13
2018-09-26T01:23:51.532Z,103012.33
2018-09-26T01:26:20.219Z,103014.63
2018-09-26T01:28:48.734Z,103011.25
2018-09-26T01:31:17.532Z,103017.41
2018-09-26T01:33:46.063Z,103022.55
2018-09-26T01:36:14.802Z,103017.05
2018-09-26T01:38:43.258Z,103007.20
2018-09-26T01:41:12.083Z,103004.20
2018-09-26T01:43:40.734Z,103006.33
2018-09-26T01:46:09.399Z,103002.07
2018-09-26T01:48:38.093Z,103003.36
2018-09-26T01:51:06.813Z,102999.91
2018-09-26T01:53:35.482Z,102985.92
2018-09-26T01:56:04.141Z,102975.24
2018-09-26T01:58:33.019Z,102977.91
2018-09-26T02:01:02.628Z,102981.43
2018-09-26T02:03:31.356Z,102992.19
2018-09-26T02:06:00.134Z,102987.89
2018-09-26T02:08:28.711Z,102984.03
2018-09-26T02:10:57.311Z,102976.52
2018-09-26T02:13:25.936Z,102987.59
2018-09-26T02:15:54.587Z,102979.78
2018-09-26T02:18:23.412Z,102980.18
2018-09-26T02:20:52.026Z,102986.97
2018-09-26T02:23:20.845Z,102986.16
2018-09-26T02:25:49.468Z,102988.05
2018-09-26T02:28:18.235Z,103003.46
2018-09-26T02:30:46.830Z,102998.36
2018-09-26T02:33:15.460Z,102991.59
2018-09-26T02:35:45.468Z,102988.75
2018-09-26T02:38:14.282Z,102989.56
2018-09-26T02:40:43.150Z,102996.50
2018-09-26T02:43:11.848Z,102987.27
2018-09-26T02:45:40.463Z,102988.47
2018-09-26T02:48:09.103Z,102987.92
2018-09-26T02:50:37.776Z,102980.08
2018-09-26T02:53:06.408Z,102986.77
2018-09-26T02:55:35.109Z,102988.27
2018-09-26T02:58:04.900Z,102987.35
2018-09-26T03:00:33.560Z,102978.11
2018-09-26T03:03:03.385Z,102983.55
2018-09-26T03:05:32.075Z,102988.64
2018-09-26T03:08:00.804Z,102982.27
2018-09-26T03:10:29.602Z,102972.36
2018-09-26T03:12:58.519Z,102964.14
2018-09-26T03:15:27.209Z,102963.84
2018-09-26T03:17:55.814Z,102956.55
2018-09-26T03:20:24.304Z,102963.01
2018-09-26T03:22:53.746Z,102959.34
2018-09-26T03:25:22.388Z,102964.59
2018-09-26T03:27:51.077Z,102959.34
2018-09-26T03:30:19.735Z,102958.76
2018-09-26T03:32:48.398Z,102951.06
2018-09-26T03:35:17.000Z,102945.48
2018-09-26T03:37:45.653Z,102951.31
2018-09-26T03:40:14.476Z,102941.45
2018-09-26T03:42:43.282Z,102940.57
2018-09-26T03:45:11.953Z,102942.66
2018-09-26T03:47:41.100Z,102938.88
2018-09-26T03:50:09.721Z,102940.94
2018-09-26T03:52:38.364Z,102943.83
2018-09-26T03:55:07.436Z,102935.66
2018-09-26T03:57:36.286Z,102927.52
2018-09-26T04:00:06.457Z,102918.54
2018-09-26T04:02:35.094Z,102909.08
2018-09-26T04:05:04.303Z,102916.48
2018-09-26T04:07:32.907Z,102923.20
2018-09-26T04:10:02.305Z,102921.44
2018-09-26T04:12:30.926Z,102919.64
2018-09-26T04:14:59.560Z,102926.09
2018-09-26T04:17:28.475Z,102920.55
2018-09-26T04:19:57.098Z,102912.16
2018-09-26T04:22:25.790Z,102912.16
2018-09-26T04:24:54.420Z,102909.36
2018-09-26T04:27:23.044Z,102910.17
2018-09-26T04:29:51.786Z,102913.10
2018-09-26T04:32:20.360Z,102913.98
2018-09-26T04:34:49.049Z,102911.23
2018-09-26T04:37:17.725Z,102912.85
2018-09-26T04:39:46.277Z,102907.58
2018-09-26T04:42:16.647Z,102909.27
2018-09-26T04:44:45.309Z,102909.27
2018-09-26T04:47:13.899Z,102917.36
2018-09-26T04:49:42.560Z,102911.06
2018-09-26T04:52:11.170Z,102906.70
2018-09-26T04:54:39.910Z,102906.15
2018-09-26T04:57:08.539Z,102904.02
2018-09-26T04:59:37.233Z,102897.42
2018-09-26T05:02:05.857Z,102894.89
2018-09-26T05:04:34.638Z,102893.69
2018-09-26T05:07:03.421Z,102891.48
2018-09-26T05:09:32.620Z,102903.25
2018-09-26T05:12:01.590Z,102908.89
2018-09-26T05:14:31.276Z,102908.13
2018-09-26T05:16:59.860Z,102905.99
2018-09-26T05:19:28.540Z,102913.33
2018-09-26T05:21:57.268Z,102917.77
2018-09-26T05:24:26.060Z,102906.69
2018-09-26T05:26:55.653Z,102902.94
2018-09-26T05:29:25.156Z,102902.06
2018-09-26T05:31:54.316Z,102894.94
2018-09-26T05:34:23.498Z,102894.17
2018-09-26T05:36:52.132Z,102893.53
2018-09-26T05:39:20.721Z,102891.00
2018-09-26T05:41:49.427Z,102889.11
2018-09-26T05:44:18.269Z,102887.09
2018-09-26T05:46:47.343Z,102881.21
2018-09-26T05:49:15.966Z,102879.69
2018-09-26T05:51:45.073Z,102867.36
2018-09-26T05:54:14.252Z,102870.13
2018-09-26T05:56:43.092Z,102864.38
2018-09-26T05:59:11.811Z,102870.13
2018-09-26T06:01:40.594Z,102869.82
2018-09-26T06:04:09.261Z,102868.60
2018-09-26T06:06:38.995Z,102861.91
2018-09-26T06:09:10.991Z,102862.47
2018-09-26T06:11:39.654Z,102859.29
2018-09-26T06:14:10.327Z,102856.41
2018-09-26T06:16:39.210Z,102849.89
2018-09-26T06:19:08.295Z,102852.72
2018-09-26T06:21:37.120Z,102846.05
2018-09-26T06:24:06.400Z,102843.69
2018-09-26T06:26:35.082Z,102846.83
2018-09-26T06:29:04.355Z,102840.15
2018-09-26T06:31:33.042Z,102835.91
2018-09-26T06:34:02.907Z,102829.70
2018-09-26T06:36:32.515Z,102820.73
2018-09-26T06:39:02.920Z,102819.25
2018-09-26T06:41:31.831Z,102818.93
2018-09-26T06:44:00.696Z,102815.52
2018-09-26T06:46:29.446Z,102814.38
2018-09-26T06:48:58.332Z,102813.23
2018-09-26T06:51:26.933Z,102820.08
2018-09-26T06:53:57.493Z,102815.02
2018-09-26T06:56:26.182Z,102822.00
2018-09-26T06:58:54.939Z,102821.68
2018-09-26T07:01:23.479Z,102828.69
2018-09-26T07:03:52.084Z,102830.51
2018-09-26T07:06:20.712Z,102833.19
2018-09-26T07:08:49.393Z,102833.34
2018-09-26T07:11:19.079Z,102836.44
2018-09-26T07:13:47.665Z,102828.72
2018-09-26T07:16:16.728Z,102825.02
2018-09-26T07:18:45.554Z,102830.58
2018-09-26T07:21:14.196Z,102821.30
2018-09-26T07:23:42.963Z,102825.11
2018-09-26T07:26:11.933Z,102815.36
2018-09-26T07:28:41.036Z,102814.56
2018-09-26T07:31:09.698Z,102812.08
2018-09-26T07:33:38.340Z,102816.02
2018-09-26T07:36:07.095Z,102819.87
2018-09-26T07:38:35.803Z,102820.70
2018-09-26T07:41:04.517Z,102824.31
2018-09-26T07:43:33.294Z,102830.09
2018-09-26T07:46:02.072Z,102825.02
2018-09-26T07:48:30.662Z,102825.56
2018-09-26T07:50:59.398Z,102826.75
2018-09-26T07:53:27.976Z,102812.24
2018-09-26T07:55:56.873Z,102819.42
2018-09-26T07:58:25.625Z,102819.09
2018-09-26T08:00:54.373Z,102825.73
2018-09-26T08:03:23.093Z,102826.67
2018-09-26T08:05:51.981Z,102825.94
2018-09-26T08:08:21.289Z,102823.42
2018-09-26T08:10:50.538Z,102833.80
2018-09-26T08:13:20.006Z,102842.21
2018-09-26T08:15:48.732Z,102837.25
2018-09-26T08:18:18.074Z,102825.84
2018-09-26T08:20:46.760Z,102824.77
2018-09-26T08:23:15.335Z,102825.34
2018-09-26T08:25:44.089Z,102831.98
2018-09-26T08:28:13.363Z,102827.30
2018-09-26T08:30:42.336Z,102816.57
2018-09-26T08:33:10.952Z,102819.17
2018-09-26T08:35:40.291Z,102820.45
2018-09-26T08:38:09.715Z,102814.52
2018-09-26T08:40:38.520Z,102813.30
2018-09-26T08:43:07.237Z,102806.09
2018-09-26T08:45:35.927Z,102807.90
2018-09-26T08:48:05.227Z,102807.16
2018-09-26T08:50:34.003Z,102814.89
2018-09-26T08:53:04.842Z,102808.86
2018-09-26T08:55:33.893Z,102819.23
2018-09-26T08:58:02.889Z,102812.79
2018-09-26T09:00:35.046Z,102818.06
2018-09-26T09:03:06.590Z,102823.80
2018-09-26T09:05:35.342Z,102833.72
2018-09-26T09:08:04.149Z,102833.84
2018-09-26T09:10:32.903Z,102829.30
2018-09-26T09:13:02.113Z,102823.42
2018-09-26T09:15:30.757Z,102818.47
2018-09-26T09:17:59.473Z,102817.35
2018-09-26T09:20:28.161Z,102808.45
2018-09-26T09:22:56.825Z,102806.45
2018-09-26T09:25:25.644Z,102805.67
2018-09-26T09:27:54.555Z,102807.48
2018-09-26T09:30:23.173Z,102810.11
2018-09-26T09:32:51.886Z,102803.61
2018-09-26T09:35:20.981Z,102799.79
2018-09-26T09:37:49.888Z,102798.08
2018-09-26T09:40:18.556Z,102802.42
2018-09-26T09:42:48.086Z,102802.56
2018-09-26T09:45:18.194Z,102798.78
2018-09-26T09:47:47.892Z,102791.14
2018-09-26T09:50:16.695Z,102795.56
2018-09-26T09:52:45.991Z,102797.83
2018-09-26T09:55:14.869Z,102789.33
2018-09-26T09:57:43.755Z,102786.37
2018-09-26T10:00:12.515Z,102785.13
2018-09-26T10:02:42.169Z,102784.01
2018-09-26T10:05:11.412Z,102775.05
2018-09-26T10:07:40.429Z,102763.08
2018-09-26T10:10:09.395Z,102762.02
2018-09-26T10:12:38.631Z,102757.83
2018-09-26T10:15:07.665Z,102757.57
2018-09-26T10:17:36.822Z,102753.38
2018-09-26T10:20:06.015Z,102749.19
2018-09-26T10:22:34.960Z,102747.02
2018-09-26T10:25:06.265Z,102741.48
2018-09-26T10:27:35.293Z,102734.63
2018-09-26T10:30:06.014Z,102725.22
2018-09-26T10:32:35.835Z,102720.49
2018-09-26T10:35:05.513Z,102719.69
2018-09-26T10:37:36.154Z,102719.33
2018-09-26T10:40:05.885Z,102717.67
2018-09-26T10:42:35.549Z,102723.78
2018-09-26T10:45:06.121Z,102719.47
2018-09-26T10:47:35.896Z,102721.25
2018-09-26T10:50:06.386Z,102717.91
2018-09-26T10:52:35.537Z,102705.93
2018-09-26T10:55:06.302Z,102705.22
2018-09-26T10:57:35.418Z,102704.02
2018-09-26T11:00:06.367Z,102701.05
2018-09-26T11:02:36.305Z,102687.70
2018-09-26T11:05:06.251Z,102686.91
2018-09-26T11:07:35.428Z,102677.45
2018-09-26T11:10:06.093Z,102668.38
2018-09-26T11:12:36.015Z,102667.13
2018-09-26T11:15:06.278Z,102666.70
2018-09-26T11:17:37.520Z,102664.99
2018-09-26T11:20:08.419Z,102672.38
2018-09-26T11:22:38.748Z,102672.41
2018-09-26T11:25:08.910Z,102666.79
2018-09-26T11:27:38.013Z,102660.30
2018-09-26T11:30:07.100Z,102654.70
2018-09-26T11:32:35.885Z,102664.64
2018-09-26T11:35:06.098Z,102664.69
2018-09-26T11:37:34.843Z,102655.64
2018-09-26T11:40:03.734Z,102660.05
2018-09-26T11:42:32.829Z,102654.86
2018-09-26T11:45:01.777Z,102648.88
2018-09-26T11:47:30.666Z,102649.34
2018-09-26T11:49:59.562Z,102653.69
2018-09-26T11:52:28.575Z,102648.49
2018-09-26T11:54:57.547Z,102641.91
2018-09-26T11:57:26.448Z,102641.95
2018-09-26T11:59:55.306Z,102639.83
2018-09-26T12:02:24.253Z,102633.37
2018-09-26T12:04:54.299Z,102621.33
2018-09-26T12:07:23.233Z,102610.54
2018-09-26T12:09:52.114Z,102598.85
2018-09-26T12:12:20.859Z,102598.43
2018-09-26T12:14:49.900Z,102589.75
2018-09-26T12:17:20.367Z,102586.30
2018-09-26T12:19:49.249Z,102587.58
2018-09-26T12:22:18.584Z,102593.64
2018-09-26T12:24:47.286Z,102582.39
2018-09-26T12:27:15.980Z,102584.13
2018-09-26T12:29:45.040Z,102576.73
2018-09-26T12:32:13.856Z,102573.71
2018-09-26T12:34:42.618Z,102567.62
2018-09-26T12:37:11.315Z,102571.11
2018-09-26T12:39:40.187Z,102559.80
2018-09-26T12:42:09.079Z,102556.76
2018-09-26T12:44:38.036Z,102554.59
2018-09-26T12:47:07.000Z,102548.51
2018-09-26T12:49:35.779Z,102542.89
2018-09-26T12:52:04.674Z,102535.95
2018-09-26T12:54:33.421Z,102533.28
2018-09-26T12:57:03.016Z,102528.06
2018-09-26T12:59:31.752Z,102525.36
2018-09-26T13:02:02.359Z,102517.09
2018-09-26T13:04:31.468Z,102521.39
2018-09-26T13:07:00.007Z,102514.42
2018-09-26T13:09:28.662Z,102517.87
2018-09-26T13:11:57.472Z,102516.11
2018-09-26T13:14:26.839Z,102505.64
2018-09-26T13:16:55.623Z,102504.23
2018-09-26T13:19:24.412Z,102497.20
2018-09-26T13:21:53.033Z,102503.30
2018-09-26T13:24:22.431Z,102493.34
2018-09-26T13:26:51.179Z,102497.31
2018-09-26T13:29:19.828Z,102495.22
2018-09-26T13:31:48.610Z,102492.18
2018-09-26T13:34:17.227Z,102492.62
2018-09-26T13:36:45.852Z,102492.97
2018-09-26T13:39:14.594Z,102489.53
2018-09-26T13:41:43.297Z,102484.29
2018-09-26T13:44:12.020Z,102485.59
2018-09-26T13:46:40.692Z,102484.84
2018-09-26T13:49:09.258Z,102477.13
2018-09-26T13:51:38.004Z,102477.53
2018-09-26T13:54:08.466Z,102474.47
2018-09-26T13:56:37.153Z,102466.20
2018-09-26T13:59:05.835Z,102469.58
2018-09-26T14:01:34.557Z,102464.75
2018-09-26T14:04:04.016Z,102468.59
2018-09-26T14:06:32.662Z,102451.20
2018-09-26T14:09:01.796Z,102443.34
2018-09-26T14:11:30.603Z,102451.63
2018-09-26T14:13:59.341Z,102451.27
2018-09-26T14:16:27.954Z,102453.40
2018-09-26T14:18:56.608Z,102454.60
2018-09-26T14:21:25.266Z,102438.94
2018-09-26T14:23:53.993Z,102440.13
2018-09-26T14:26:22.802Z,102435.71
2018-09-26T14:28:51.375Z,102431.77
2018-09-26T14:31:20.173Z,102425.25
2018-09-26T14:33:49.005Z,102421.81
2018-09-26T14:36:17.624Z,102411.46
2018-09-26T14:38:46.376Z,102410.73
2018-09-26T14:41:14.951Z,102412.58
2018-09-26T14:43:43.633Z,102413.92
2018-09-26T14:46:12.441Z,102413.52
2018-09-26T14:48:41.250Z,102417.39
2018-09-26T14:51:10.065Z,102416.02
2018-09-26T14:53:39.369Z,102411.61
2018-09-26T14:56:08.294Z,102410.23
2018-09-26T14:58:37.201Z,102409.21
2018-09-26T15:01:05.883Z,102399.53
2018-09-26T15:03:34.599Z,102406.95
2018-09-26T15:06:03.880Z,102401.35
2018-09-26T15:08:32.534Z,102399.19
2018-09-26T15:11:03.189Z,102391.41
2018-09-26T15:13:31.949Z,102393.22
2018-09-26T15:16:00.687Z,102388.55
2018-09-26T15:18:29.215Z,102389.14
2018-09-26T15:20:57.935Z,102377.98
2018-09-26T15:23:26.794Z,102383.80
2018-09-26T15:25:55.652Z,102395.20
2018-09-26T15:28:24.363Z,102395.65
2018-09-26T15:30:53.133Z,102386.59
2018-09-26T15:33:21.854Z,102385.31
2018-09-26T15:35:50.471Z,102387.48
2018-09-26T15:38:19.083Z,102386.64
2018-09-26T15:40:47.814Z,102388.41
2018-09-26T15:43:16.497Z,102383.23
2018-09-26T15:45:45.118Z,102384.98
2018-09-26T15:48:14.109Z,102386.30
2018-09-26T15:50:43.136Z,102394.59
2018-09-26T15:53:11.957Z,102391.58
2018-09-26T15:55:40.876Z,102395.49
2018-09-26T15:58:09.551Z,102394.24
2018-09-26T16:00:38.206Z,102388.17
2018-09-26T16:03:06.847Z,102392.09
2018-09-26T16:05:35.421Z,102391.23
2018-09-26T16:08:04.416Z,102387.34
2018-09-26T16:10:33.126Z,102393.00
2018-09-26T16:13:03.305Z,102391.69
2018-09-26T16:15:32.691Z,102389.11
2018-09-26T16:18:02.428Z,102393.91
2018-09-26T16:20:31.224Z,102392.20
2018-09-26T16:23:01.755Z,102384.02
2018-09-26T16:25:31.414Z,102383.98
2018-09-26T16:28:00.232Z,102379.67
2018-09-26T16:30:28.947Z,102381.00
2018-09-26T16:32:58.698Z,102387.94
2018-09-26T16:35:27.367Z,102394.88
2018-09-26T16:37:55.954Z,102397.92
2018-09-26T16:40:24.863Z,102397.50
2018-09-26T16:42:53.786Z,102400.10
2018-09-26T16:45:22.711Z,102399.23
2018-09-26T16:47:51.372Z,102397.53
2018-09-26T16:50:20.363Z,102399.69
2018-09-26T16:52:50.042Z,102397.09
2018-09-26T16:55:18.658Z,102403.18
2018-09-26T16:57:47.723Z,102408.80
2018-09-26T17:00:16.568Z,102412.69
2018-09-26T17:02:45.260Z,102413.58
2018-09-26T17:05:14.042Z,102417.45
2018-09-26T17:07:49.477Z,102414.87
2018-09-26T17:10:18.374Z,102415.30
2018-09-26T17:12:47.295Z,102420.92
2018-09-26T17:15:15.983Z,102421.34
2018-09-26T17:17:44.611Z,102420.91
2018-09-26T17:20:13.509Z,102424.80
2018-09-26T17:22:43.104Z,102417.89
2018-09-26T17:25:11.996Z,102426.13
2018-09-26T17:27:40.670Z,102417.89
2018-09-26T17:30:09.432Z,102423.52
2018-09-26T17:32:38.187Z,102428.28
2018-09-26T17:35:07.651Z,102417.02
2018-09-26T17:37:36.455Z,102413.15
2018-09-26T17:40:05.760Z,102423.53
2018-09-26T17:42:34.547Z,102418.76
2018-09-26T17:45:03.994Z,102418.78
2018-09-26T17:47:32.868Z,102421.34
2018-09-26T17:50:02.663Z,102423.52
2018-09-26T17:52:31.380Z,102424.83
2018-09-26T17:55:00.075Z,102413.13
2018-09-26T17:57:28.884Z,102416.16
2018-09-26T17:59:57.594Z,102417.46
2018-09-26T18:02:29.671Z,102425.69
2018-09-26T18:05:02.790Z,102424.34
2018-09-26T18:07:31.413Z,102428.28
2018-09-26T18:10:00.096Z,102432.18
2018-09-26T18:12:28.751Z,102433.45
2018-09-26T18:14:57.474Z,102436.48
2018-09-26T18:17:26.114Z,102429.14
2018-09-26T18:19:54.800Z,102425.69
2018-09-26T18:22:23.535Z,102427.86
2018-09-26T18:24:52.261Z,102429.58
2018-09-26T18:27:20.972Z,102433.05
2018-09-26T18:29:49.945Z,102432.18
2018-09-26T18:32:18.826Z,102429.98
2018-09-26T18:34:47.428Z,102439.91
2018-09-26T18:37:16.262Z,102436.47
2018-09-26T18:39:44.901Z,102437.32
2018-09-26T18:42:13.564Z,102438.23
2018-09-26T18:44:42.271Z,102435.20
2018-09-26T18:47:10.890Z,102443.00
2018-09-26T18:49:39.498Z,102444.70
2018-09-26T18:52:08.133Z,102447.31
2018-09-26T18:54:36.743Z,102443.00
2018-09-26T18:57:05.497Z,102448.19
2018-09-26T18:59:34.498Z,102451.64
2018-09-26T19:02:03.586Z,102456.83
2018-09-26T19:04:32.429Z,102455.95
2018-09-26T19:07:00.996Z,102458.58
2018-09-26T19:09:29.624Z,102462.03
2018-09-26T19:11:58.343Z,102457.27
2018-09-26T19:14:27.132Z,102462.05
2018-09-26T19:16:56.348Z,102459.44
2018-09-26T19:19:24.984Z,102456.41
2018-09-26T19:21:53.741Z,102458.15
2018-09-26T19:24:22.456Z,102449.91
2018-09-26T19:26:51.183Z,102455.55
2018-09-26T19:29:20.276Z,102446.47
2018-09-26T19:31:49.012Z,102453.81
2018-09-26T19:34:17.636Z,102449.91
2018-09-26T19:36:46.252Z,102438.66
2018-09-26T19:39:14.919Z,102441.70
2018-09-26T19:41:43.903Z,102434.34
2018-09-26T19:44:12.612Z,102431.30
2018-09-26T19:46:41.221Z,102421.38
2018-09-26T19:49:10.153Z,102421.78
2018-09-26T19:51:39.189Z,102421.36
2018-09-26T19:54:08.351Z,102431.31
2018-09-26T19:56:37.138Z,102430.02
2018-09-26T19:59:05.903Z,102440.84
2018-09-26T20:01:34.716Z,102443.36
2018-09-26T20:04:03.441Z,102440.77
2018-09-26T20:06:32.118Z,102441.66
2018-09-26T20:09:03.244Z,102437.75
2018-09-26T20:11:33.522Z,102433.86
2018-09-26T20:14:02.910Z,102426.92
2018-09-26T20:16:31.587Z,102426.94
2018-09-26T20:19:00.332Z,102433.43
2018-09-26T20:21:29.807Z,102423.92
2018-09-26T20:23:58.955Z,102419.59
2018-09-26T20:26:27.759Z,102407.91
2018-09-26T20:28:56.736Z,102397.52
2018-09-26T20:31:25.160Z,102401.42
2018-09-26T20:33:53.918Z,102403.13
2018-09-26T20:36:22.649Z,102423.47
2018-09-26T20:38:51.295Z,102423.47
2018-09-26T20:41:20.053Z,102438.16
2018-09-26T20:43:48.816Z,102434.27
2018-09-26T20:46:17.445Z,102432.98
2018-09-26T20:48:46.330Z,102426.50
2018-09-26T20:51:15.518Z,102418.70
2018-09-26T20:53:44.288Z,102428.64
2018-09-26T20:56:13.063Z,102432.97
2018-09-26T20:58:41.894Z,102422.58
2018-09-26T21:01:10.903Z,102430.36
2018-09-26T21:03:40.464Z,102438.59
2018-09-26T21:06:09.786Z,102429.08
2018-09-26T21:08:38.716Z,102423.43
2018-09-26T21:11:07.652Z,102418.70
2018-09-26T21:13:36.834Z,102408.75
2018-09-26T21:16:05.777Z,102412.64
2018-09-26T21:18:35.364Z,102426.45
2018-09-26T21:21:06.383Z,102424.75
2018-09-26T21:23:35.072Z,102428.62
2018-09-26T21:26:06.173Z,102427.78
2018-09-26T21:28:35.945Z,102424.31
2018-09-26T21:31:05.025Z,102427.34
2018-09-26T21:33:33.877Z,102426.06
2018-09-26T21:36:02.885Z,102429.97
2018-09-26T21:38:31.529Z,102433.43
2018-09-26T21:41:00.161Z,102424.34
2018-09-26T21:43:28.919Z,102429.52
2018-09-26T21:45:57.666Z,102432.56
2018-09-26T21:48:26.510Z,102439.03
2018-09-26T21:50:55.291Z,102432.58
2018-09-26T21:53:23.856Z,102432.13
2018-09-26T21:55:52.451Z,102445.53
2018-09-26T21:58:21.095Z,102448.14
2018-09-26T22:00:55.571Z,102440.81
2018-09-26T22:03:24.260Z,102443.84
2018-09-26T22:05:52.866Z,102436.52
2018-09-26T22:08:21.696Z,102445.17
2018-09-26T22:10:50.515Z,102439.09
2018-09-26T22:13:19.317Z,102436.08
2018-09-26T22:15:47.933Z,102440.84
2018-09-26T22:18:16.631Z,102433.48
2018-09-26T22:20:45.256Z,102445.15
2018-09-26T22:23:13.869Z,102436.95
2018-09-26T22:25:42.572Z,102446.45
2018-09-26T22:28:11.401Z,102443.87
2018-09-26T22:30:40.010Z,102438.66
2018-09-26T22:33:08.802Z,102443.44
2018-09-26T22:35:37.364Z,102437.36
2018-09-26T22:38:06.125Z,102435.21
2018-09-26T22:40:34.843Z,102432.63
2018-09-26T22:43:03.944Z,102434.77
2018-09-26T22:45:32.706Z,102428.73
2018-09-26T22:48:01.573Z,102428.73
2018-09-26T22:50:30.202Z,102421.36
2018-09-26T22:52:58.900Z,102420.94
2018-09-26T22:55:27.480Z,102412.28
2018-09-26T22:57:56.284Z,102417.05
2018-09-26T23:00:25.051Z,102420.06
2018-09-26T23:02:53.929Z,102417.47
2018-09-26T23:05:22.585Z,102414.00
2018-09-26T23:07:51.251Z,102418.31
2018-09-26T23:10:19.892Z,102419.63
2018-09-26T23:12:48.593Z,102411.83
2018-09-26T23:15:17.242Z,102412.29
2018-09-26T23:17:45.857Z,102415.31
2018-09-26T23:20:14.588Z,102423.08
2018-09-26T23:22:43.250Z,102424.38
2018-09-26T23:25:11.903Z,102421.36
2018-09-26T23:27:40.602Z,102425.25
2018-09-26T23:30:09.953Z,102422.21
2018-09-26T23:32:38.781Z,102410.98
2018-09-26T23:35:07.401Z,102420.08
2018-09-26T23:37:36.020Z,102408.39
2018-09-26T23:40:04.887Z,102417.91
2018-09-26T23:42:33.614Z,102417.89
2018-09-26T23:45:03.724Z,102411.42
2018-09-26T23:47:32.474Z,102412.72
2018-09-26T23:50:01.793Z,102405.78
2018-09-26T23:52:30.491Z,102403.63
2018-09-26T23:54:59.145Z,102401.91
2018-09-26T23:57:27.719Z,102391.05
2018-09-26T23:59:56.329Z,102401.03
